sensor_id;sensor_type;location;lat;lon;timestamp;temperature;humidity
32201;DHT22;18701;45.588;5.288;2023-03-30T00:01:19;14.50;99.90
32201;DHT22;18701;45.588;5.288;2023-03-30T00:03:46;14.50;99.90
32201;DHT22;18701;45.588;5.288;2023-03-30T00:06:13;14.20;99.90
32201;DHT22;18701;45.588;5.288;2023-03-30T00:08:46;14.10;99.90
32201;DHT22;18701;45.588;5.288;2023-03-30T00:11:13;14.20;99.90
32201;DHT22;18701;45.588;5.288;2023-03-30T00:13:40;14.10;99.90
32201;DHT22;18701;45.588;5.288;2023-03-30T00:16:09;14.20;99.90
32201;DHT22;18701;45.588;5.288;2023-03-30T00:18:38;14.20;99.90
32201;DHT22;18701;45.588;5.288;2023-03-30T00:21:05;14.20;99.90
32201;DHT22;18701;45.588;5.288;2023-03-30T00:23:32;14.30;99.90
32201;DHT22;18701;45.588;5.288;2023-03-30T00:25:58;14.10;99.90
32201;DHT22;18701;45.588;5.288;2023-03-30T00:28:24;14.10;99.90
32201;DHT22;18701;45.588;5.288;2023-03-30T00:30:51;14.00;99.90
32201;DHT22;18701;45.588;5.288;2023-03-30T00:33:18;14.10;99.90
32201;DHT22;18701;45.588;5.288;2023-03-30T00:35:54;14.30;99.90
32201;DHT22;18701;45.588;5.288;2023-03-30T00:38:20;14.20;99.90
32201;DHT22;18701;45.588;5.288;2023-03-30T00:40:54;14.20;99.90
32201;DHT22;18701;45.588;5.288;2023-03-30T00:43:20;14.00;99.90
32201;DHT22;18701;45.588;5.288;2023-03-30T00:45:46;14.00;99.90
32201;DHT22;18701;45.588;5.288;2023-03-30T00:48:29;14.10;99.90
32201;DHT22;18701;45.588;5.288;2023-03-30T00:50:57;14.20;99.90
32201;DHT22;18701;45.588;5.288;2023-03-30T00:53:29;14.20;99.90
32201;DHT22;18701;45.588;5.288;2023-03-30T00:55:56;14.10;99.90
32201;DHT22;18701;45.588;5.288;2023-03-30T00:58:23;14.20;99.90
32201;DHT22;18701;45.588;5.288;2023-03-30T01:00:50;14.10;99.90
32201;DHT22;18701;45.588;5.288;2023-03-30T01:03:23;13.90;99.90
32201;DHT22;18701;45.588;5.288;2023-03-30T01:05:52;14.00;99.90
32201;DHT22;18701;45.588;5.288;2023-03-30T01:08:19;14.00;99.90
32201;DHT22;18701;45.588;5.288;2023-03-30T01:10:49;13.90;99.90
32201;DHT22;18701;45.588;5.288;2023-03-30T01:13:16;13.90;99.90
32201;DHT22;18701;45.588;5.288;2023-03-30T01:18:26;13.90;99.90
32201;DHT22;18701;45.588;5.288;2023-03-30T01:24:09;13.90;99.90
32201;DHT22;18701;45.588;5.288;2023-03-30T01:32:25;13.80;99.90
32201;DHT22;18701;45.588;5.288;2023-03-30T01:40:35;13.90;99.90
32201;DHT22;18701;45.588;5.288;2023-03-30T01:43:18;13.90;99.90
32201;DHT22;18701;45.588;5.288;2023-03-30T01:45:50;13.90;99.90
32201;DHT22;18701;45.588;5.288;2023-03-30T01:48:43;13.90;99.90
32201;DHT22;18701;45.588;5.288;2023-03-30T01:51:26;13.80;99.90
32201;DHT22;18701;45.588;5.288;2023-03-30T01:53:59;13.80;99.90
32201;DHT22;18701;45.588;5.288;2023-03-30T01:56:48;13.70;99.90
32201;DHT22;18701;45.588;5.288;2023-03-30T01:59:23;13.90;99.90
32201;DHT22;18701;45.588;5.288;2023-03-30T02:01:53;13.80;99.90
32201;DHT22;18701;45.588;5.288;2023-03-30T02:04:26;13.90;99.90
32201;DHT22;18701;45.588;5.288;2023-03-30T02:06:59;14.00;99.90
32201;DHT22;18701;45.588;5.288;2023-03-30T02:09:27;13.80;99.90
32201;DHT22;18701;45.588;5.288;2023-03-30T02:11:54;13.80;99.90
32201;DHT22;18701;45.588;5.288;2023-03-30T02:14:28;13.90;99.90
32201;DHT22;18701;45.588;5.288;2023-03-30T02:17:12;13.70;99.90
32201;DHT22;18701;45.588;5.288;2023-03-30T02:19:39;13.60;99.90
32201;DHT22;18701;45.588;5.288;2023-03-30T02:22:06;13.70;99.90
32201;DHT22;18701;45.588;5.288;2023-03-30T02:24:33;13.70;99.90
32201;DHT22;18701;45.588;5.288;2023-03-30T02:27:00;13.90;99.90
32201;DHT22;18701;45.588;5.288;2023-03-30T02:29:27;13.80;99.90
32201;DHT22;18701;45.588;5.288;2023-03-30T02:31:55;13.80;99.90
32201;DHT22;18701;45.588;5.288;2023-03-30T02:43:36;13.60;99.90
32201;DHT22;18701;45.588;5.288;2023-03-30T02:59:00;13.70;99.90
32201;DHT22;18701;45.588;5.288;2023-03-30T03:01:38;13.60;99.90
32201;DHT22;18701;45.588;5.288;2023-03-30T03:04:06;13.60;99.90
32201;DHT22;18701;45.588;5.288;2023-03-30T03:06:34;13.40;99.90
32201;DHT22;18701;45.588;5.288;2023-03-30T03:09:03;13.60;99.90
32201;DHT22;18701;45.588;5.288;2023-03-30T03:11:29;13.60;99.90
32201;DHT22;18701;45.588;5.288;2023-03-30T03:13:54;13.60;99.90
32201;DHT22;18701;45.588;5.288;2023-03-30T03:16:20;13.50;99.90
32201;DHT22;18701;45.588;5.288;2023-03-30T03:18:46;13.30;99.90
32201;DHT22;18701;45.588;5.288;2023-03-30T03:21:14;13.50;99.90
32201;DHT22;18701;45.588;5.288;2023-03-30T03:23:40;13.50;99.90
32201;DHT22;18701;45.588;5.288;2023-03-30T03:26:06;13.50;99.90
32201;DHT22;18701;45.588;5.288;2023-03-30T03:28:32;13.40;99.90
32201;DHT22;18701;45.588;5.288;2023-03-30T03:30:58;13.50;99.90
32201;DHT22;18701;45.588;5.288;2023-03-30T03:33:25;13.30;99.90
32201;DHT22;18701;45.588;5.288;2023-03-30T03:35:51;13.30;99.90
32201;DHT22;18701;45.588;5.288;2023-03-30T03:38:19;13.20;99.90
32201;DHT22;18701;45.588;5.288;2023-03-30T03:40:55;13.30;99.90
32201;DHT22;18701;45.588;5.288;2023-03-30T03:43:21;13.30;99.90
32201;DHT22;18701;45.588;5.288;2023-03-30T03:45:47;13.30;99.90
32201;DHT22;18701;45.588;5.288;2023-03-30T03:48:15;13.30;99.90
32201;DHT22;18701;45.588;5.288;2023-03-30T03:50:41;13.20;99.90
32201;DHT22;18701;45.588;5.288;2023-03-30T03:53:08;13.20;99.90
32201;DHT22;18701;45.588;5.288;2023-03-30T03:55:34;13.20;99.90
32201;DHT22;18701;45.588;5.288;2023-03-30T03:58:04;13.20;99.90
32201;DHT22;18701;45.588;5.288;2023-03-30T04:00:30;13.30;99.90
32201;DHT22;18701;45.588;5.288;2023-03-30T04:02:56;13.10;99.90
32201;DHT22;18701;45.588;5.288;2023-03-30T04:05:22;13.20;99.90
32201;DHT22;18701;45.588;5.288;2023-03-30T04:07:48;13.20;99.90
32201;DHT22;18701;45.588;5.288;2023-03-30T04:10:14;13.20;99.90
32201;DHT22;18701;45.588;5.288;2023-03-30T04:12:40;13.20;99.90
32201;DHT22;18701;45.588;5.288;2023-03-30T04:15:09;13.30;99.90
32201;DHT22;18701;45.588;5.288;2023-03-30T04:17:34;13.20;99.90
32201;DHT22;18701;45.588;5.288;2023-03-30T04:20:06;13.20;99.90
32201;DHT22;18701;45.588;5.288;2023-03-30T04:22:35;13.30;99.90
32201;DHT22;18701;45.588;5.288;2023-03-30T04:25:02;13.20;99.90
32201;DHT22;18701;45.588;5.288;2023-03-30T04:27:29;13.20;99.90
32201;DHT22;18701;45.588;5.288;2023-03-30T04:29:55;13.30;99.90
32201;DHT22;18701;45.588;5.288;2023-03-30T04:32:22;13.30;99.90
32201;DHT22;18701;45.588;5.288;2023-03-30T04:34:48;13.30;99.90
32201;DHT22;18701;45.588;5.288;2023-03-30T04:37:19;13.30;99.90
32201;DHT22;18701;45.588;5.288;2023-03-30T04:39:58;13.30;99.90
32201;DHT22;18701;45.588;5.288;2023-03-30T04:42:24;13.30;99.90
32201;DHT22;18701;45.588;5.288;2023-03-30T04:44:55;13.40;99.90
32201;DHT22;18701;45.588;5.288;2023-03-30T04:47:21;13.20;99.90
32201;DHT22;18701;45.588;5.288;2023-03-30T04:49:47;13.30;99.90
32201;DHT22;18701;45.588;5.288;2023-03-30T04:52:12;13.40;99.90
32201;DHT22;18701;45.588;5.288;2023-03-30T04:54:38;13.30;99.90
32201;DHT22;18701;45.588;5.288;2023-03-30T04:57:04;13.30;99.90
32201;DHT22;18701;45.588;5.288;2023-03-30T04:59:29;13.40;99.90
32201;DHT22;18701;45.588;5.288;2023-03-30T05:01:55;13.40;99.90
32201;DHT22;18701;45.588;5.288;2023-03-30T05:04:20;13.40;99.90
32201;DHT22;18701;45.588;5.288;2023-03-30T05:06:46;13.30;99.90
32201;DHT22;18701;45.588;5.288;2023-03-30T05:09:14;13.40;99.90
32201;DHT22;18701;45.588;5.288;2023-03-30T05:11:40;13.40;99.90
32201;DHT22;18701;45.588;5.288;2023-03-30T05:14:05;13.40;99.90
32201;DHT22;18701;45.588;5.288;2023-03-30T05:16:31;13.30;99.90
32201;DHT22;18701;45.588;5.288;2023-03-30T05:18:57;13.40;99.90
32201;DHT22;18701;45.588;5.288;2023-03-30T05:21:23;13.40;99.90
32201;DHT22;18701;45.588;5.288;2023-03-30T05:23:48;13.50;99.90
32201;DHT22;18701;45.588;5.288;2023-03-30T05:26:14;13.40;99.90
32201;DHT22;18701;45.588;5.288;2023-03-30T05:28:40;13.30;99.90
32201;DHT22;18701;45.588;5.288;2023-03-30T05:31:10;13.50;99.90
32201;DHT22;18701;45.588;5.288;2023-03-30T05:33:35;13.50;99.90
32201;DHT22;18701;45.588;5.288;2023-03-30T05:36:01;13.60;99.90
32201;DHT22;18701;45.588;5.288;2023-03-30T05:38:27;13.70;99.90
32201;DHT22;18701;45.588;5.288;2023-03-30T05:40:53;13.70;99.90
32201;DHT22;18701;45.588;5.288;2023-03-30T05:43:19;13.70;99.90
32201;DHT22;18701;45.588;5.288;2023-03-30T05:45:45;13.70;99.90
32201;DHT22;18701;45.588;5.288;2023-03-30T05:48:11;13.80;99.90
32201;DHT22;18701;45.588;5.288;2023-03-30T05:50:36;13.90;99.90
32201;DHT22;18701;45.588;5.288;2023-03-30T05:53:02;13.80;99.90
32201;DHT22;18701;45.588;5.288;2023-03-30T05:55:28;13.90;99.90
32201;DHT22;18701;45.588;5.288;2023-03-30T05:57:54;13.90;99.90
32201;DHT22;18701;45.588;5.288;2023-03-30T06:00:21;14.00;99.90
32201;DHT22;18701;45.588;5.288;2023-03-30T06:02:47;14.00;99.90
32201;DHT22;18701;45.588;5.288;2023-03-30T06:05:13;14.00;99.90
32201;DHT22;18701;45.588;5.288;2023-03-30T06:07:39;14.10;99.90
32201;DHT22;18701;45.588;5.288;2023-03-30T06:10:05;14.00;99.90
32201;DHT22;18701;45.588;5.288;2023-03-30T06:12:32;14.00;99.90
32201;DHT22;18701;45.588;5.288;2023-03-30T06:14:58;13.90;99.90
32201;DHT22;18701;45.588;5.288;2023-03-30T06:17:27;14.00;99.90
32201;DHT22;18701;45.588;5.288;2023-03-30T06:19:54;14.00;99.90
32201;DHT22;18701;45.588;5.288;2023-03-30T06:22:19;14.10;99.90
32201;DHT22;18701;45.588;5.288;2023-03-30T06:24:45;14.10;99.90
32201;DHT22;18701;45.588;5.288;2023-03-30T06:27:11;14.10;99.90
32201;DHT22;18701;45.588;5.288;2023-03-30T06:29:37;14.10;99.90
32201;DHT22;18701;45.588;5.288;2023-03-30T06:32:03;14.10;99.90
32201;DHT22;18701;45.588;5.288;2023-03-30T06:34:29;14.20;99.90
32201;DHT22;18701;45.588;5.288;2023-03-30T06:36:55;14.10;99.90
32201;DHT22;18701;45.588;5.288;2023-03-30T06:39:21;14.10;99.90
32201;DHT22;18701;45.588;5.288;2023-03-30T06:41:47;14.10;99.90
32201;DHT22;18701;45.588;5.288;2023-03-30T06:44:13;14.00;99.90
32201;DHT22;18701;45.588;5.288;2023-03-30T06:46:40;14.10;99.90
32201;DHT22;18701;45.588;5.288;2023-03-30T06:49:06;14.20;99.90
32201;DHT22;18701;45.588;5.288;2023-03-30T06:51:32;14.20;99.90
32201;DHT22;18701;45.588;5.288;2023-03-30T06:54:00;14.10;99.90
32201;DHT22;18701;45.588;5.288;2023-03-30T06:56:26;14.10;99.90
32201;DHT22;18701;45.588;5.288;2023-03-30T06:58:52;14.10;99.90
32201;DHT22;18701;45.588;5.288;2023-03-30T07:01:18;14.10;99.90
32201;DHT22;18701;45.588;5.288;2023-03-30T07:03:44;14.20;99.90
32201;DHT22;18701;45.588;5.288;2023-03-30T07:06:10;14.20;99.90
32201;DHT22;18701;45.588;5.288;2023-03-30T07:08:36;14.20;99.90
32201;DHT22;18701;45.588;5.288;2023-03-30T07:11:03;14.10;99.90
32201;DHT22;18701;45.588;5.288;2023-03-30T07:13:29;14.20;99.90
32201;DHT22;18701;45.588;5.288;2023-03-30T07:15:55;14.10;99.90
32201;DHT22;18701;45.588;5.288;2023-03-30T07:18:21;14.10;99.90
32201;DHT22;18701;45.588;5.288;2023-03-30T07:20:46;14.10;99.90
32201;DHT22;18701;45.588;5.288;2023-03-30T07:23:12;14.10;99.90
32201;DHT22;18701;45.588;5.288;2023-03-30T07:25:39;14.10;99.90
32201;DHT22;18701;45.588;5.288;2023-03-30T07:28:05;14.20;99.90
32201;DHT22;18701;45.588;5.288;2023-03-30T07:30:32;14.10;99.90
32201;DHT22;18701;45.588;5.288;2023-03-30T07:32:57;14.20;99.90
32201;DHT22;18701;45.588;5.288;2023-03-30T07:35:23;14.30;99.90
32201;DHT22;18701;45.588;5.288;2023-03-30T07:37:49;14.30;99.90
32201;DHT22;18701;45.588;5.288;2023-03-30T07:40:15;14.40;99.90
32201;DHT22;18701;45.588;5.288;2023-03-30T07:42:42;14.40;99.90
32201;DHT22;18701;45.588;5.288;2023-03-30T07:45:10;14.40;99.90
32201;DHT22;18701;45.588;5.288;2023-03-30T07:47:36;14.50;99.90
32201;DHT22;18701;45.588;5.288;2023-03-30T07:50:02;14.40;99.90
32201;DHT22;18701;45.588;5.288;2023-03-30T07:52:28;14.40;99.90
32201;DHT22;18701;45.588;5.288;2023-03-30T07:54:54;14.40;99.90
32201;DHT22;18701;45.588;5.288;2023-03-30T07:57:21;14.40;99.90
32201;DHT22;18701;45.588;5.288;2023-03-30T07:59:46;14.50;99.90
32201;DHT22;18701;45.588;5.288;2023-03-30T08:02:13;14.40;99.90
32201;DHT22;18701;45.588;5.288;2023-03-30T08:04:42;14.60;99.90
32201;DHT22;18701;45.588;5.288;2023-03-30T08:07:11;14.50;99.90
32201;DHT22;18701;45.588;5.288;2023-03-30T08:09:37;14.60;99.90
32201;DHT22;18701;45.588;5.288;2023-03-30T08:12:03;14.50;99.90
32201;DHT22;18701;45.588;5.288;2023-03-30T08:14:29;14.70;99.90
32201;DHT22;18701;45.588;5.288;2023-03-30T08:16:55;14.70;99.90
32201;DHT22;18701;45.588;5.288;2023-03-30T08:19:23;14.90;99.90
32201;DHT22;18701;45.588;5.288;2023-03-30T08:21:49;14.90;99.90
32201;DHT22;18701;45.588;5.288;2023-03-30T08:24:14;14.80;99.90
32201;DHT22;18701;45.588;5.288;2023-03-30T08:26:40;14.90;99.90
32201;DHT22;18701;45.588;5.288;2023-03-30T08:29:06;14.80;99.90
32201;DHT22;18701;45.588;5.288;2023-03-30T08:31:32;14.80;99.90
32201;DHT22;18701;45.588;5.288;2023-03-30T08:33:59;14.80;99.90
32201;DHT22;18701;45.588;5.288;2023-03-30T08:36:24;14.80;99.90
32201;DHT22;18701;45.588;5.288;2023-03-30T08:38:50;14.90;99.90
32201;DHT22;18701;45.588;5.288;2023-03-30T08:44:00;14.90;99.90
32201;DHT22;18701;45.588;5.288;2023-03-30T08:46:26;15.20;99.90
32201;DHT22;18701;45.588;5.288;2023-03-30T08:48:54;15.50;99.90
32201;DHT22;18701;45.588;5.288;2023-03-30T08:51:27;15.10;99.90
32201;DHT22;18701;45.588;5.288;2023-03-30T08:54:03;15.10;99.90
32201;DHT22;18701;45.588;5.288;2023-03-30T08:56:38;15.20;99.90
32201;DHT22;18701;45.588;5.288;2023-03-30T09:02:03;15.30;99.90
32201;DHT22;18701;45.588;5.288;2023-03-30T09:05:07;15.30;99.90
32201;DHT22;18701;45.588;5.288;2023-03-30T09:10:15;15.70;99.90
32201;DHT22;18701;45.588;5.288;2023-03-30T09:12:50;15.80;99.90
32201;DHT22;18701;45.588;5.288;2023-03-30T09:15:24;15.90;99.90
32201;DHT22;18701;45.588;5.288;2023-03-30T09:21:02;16.10;99.90
32201;DHT22;18701;45.588;5.288;2023-03-30T09:23:29;15.90;99.90
32201;DHT22;18701;45.588;5.288;2023-03-30T09:29:13;16.20;99.90
32201;DHT22;18701;45.588;5.288;2023-03-30T09:31:48;16.40;99.90
32201;DHT22;18701;45.588;5.288;2023-03-30T09:39:28;16.80;99.90
32201;DHT22;18701;45.588;5.288;2023-03-30T09:42:05;16.80;99.90
32201;DHT22;18701;45.588;5.288;2023-03-30T09:44:37;16.80;99.90
32201;DHT22;18701;45.588;5.288;2023-03-30T09:49:43;16.70;99.90
32201;DHT22;18701;45.588;5.288;2023-03-30T09:52:19;16.60;99.90
32201;DHT22;18701;45.588;5.288;2023-03-30T09:54:45;16.50;99.90
32201;DHT22;18701;45.588;5.288;2023-03-30T09:57:31;16.50;99.90
32201;DHT22;18701;45.588;5.288;2023-03-30T09:59:58;16.60;99.90
32201;DHT22;18701;45.588;5.288;2023-03-30T10:02:26;16.40;99.90
32201;DHT22;18701;45.588;5.288;2023-03-30T10:04:58;16.40;99.90
32201;DHT22;18701;45.588;5.288;2023-03-30T10:07:28;16.40;99.90
32201;DHT22;18701;45.588;5.288;2023-03-30T10:09:57;16.60;99.90
32201;DHT22;18701;45.588;5.288;2023-03-30T10:12:24;16.50;99.90
32201;DHT22;18701;45.588;5.288;2023-03-30T10:15:14;16.60;99.90
32201;DHT22;18701;45.588;5.288;2023-03-30T10:17:40;16.60;99.90
32201;DHT22;18701;45.588;5.288;2023-03-30T10:20:16;16.80;99.90
32201;DHT22;18701;45.588;5.288;2023-03-30T10:22:51;16.80;99.90
32201;DHT22;18701;45.588;5.288;2023-03-30T10:25:19;16.90;99.90
32201;DHT22;18701;45.588;5.288;2023-03-30T10:27:49;16.80;99.90
32201;DHT22;18701;45.588;5.288;2023-03-30T10:30:19;16.70;99.90
32201;DHT22;18701;45.588;5.288;2023-03-30T10:32:48;16.70;99.90
32201;DHT22;18701;45.588;5.288;2023-03-30T10:35:19;16.60;99.90
32201;DHT22;18701;45.588;5.288;2023-03-30T10:37:46;16.60;99.90
32201;DHT22;18701;45.588;5.288;2023-03-30T10:40:19;16.80;99.90
32201;DHT22;18701;45.588;5.288;2023-03-30T10:42:50;16.90;99.90
32201;DHT22;18701;45.588;5.288;2023-03-30T10:45:36;17.10;99.90
32201;DHT22;18701;45.588;5.288;2023-03-30T10:51:06;17.40;99.90
32201;DHT22;18701;45.588;5.288;2023-03-30T10:53:55;17.60;99.90
32201;DHT22;18701;45.588;5.288;2023-03-30T10:56:36;17.90;99.90
32201;DHT22;18701;45.588;5.288;2023-03-30T10:59:15;17.70;99.90
32201;DHT22;18701;45.588;5.288;2023-03-30T11:04:56;17.40;99.90
32201;DHT22;18701;45.588;5.288;2023-03-30T11:07:39;17.30;99.90
32201;DHT22;18701;45.588;5.288;2023-03-30T11:10:21;17.20;99.90
32201;DHT22;18701;45.588;5.288;2023-03-30T11:13:00;17.10;99.90
32201;DHT22;18701;45.588;5.288;2023-03-30T11:23:43;17.30;99.90
32201;DHT22;18701;45.588;5.288;2023-03-30T11:26:11;17.40;99.90
32201;DHT22;18701;45.588;5.288;2023-03-30T11:37:09;18.30;99.90
32201;DHT22;18701;45.588;5.288;2023-03-30T11:39:44;18.70;99.90
32201;DHT22;18701;45.588;5.288;2023-03-30T11:42:28;18.50;99.90
32201;DHT22;18701;45.588;5.288;2023-03-30T11:44:55;17.80;99.90
32201;DHT22;18701;45.588;5.288;2023-03-30T11:47:50;17.70;99.90
32201;DHT22;18701;45.588;5.288;2023-03-30T11:53:55;17.80;99.90
32201;DHT22;18701;45.588;5.288;2023-03-30T11:59:05;18.50;99.90
32201;DHT22;18701;45.588;5.288;2023-03-30T12:04:09;18.70;99.90
32201;DHT22;18701;45.588;5.288;2023-03-30T12:06:50;19.30;99.90
32201;DHT22;18701;45.588;5.288;2023-03-30T12:09:34;19.90;99.60
32201;DHT22;18701;45.588;5.288;2023-03-30T12:12:22;19.80;99.70
32201;DHT22;18701;45.588;5.288;2023-03-30T12:20:03;19.70;99.40
32201;DHT22;18701;45.588;5.288;2023-03-30T12:22:47;19.40;99.30
32201;DHT22;18701;45.588;5.288;2023-03-30T12:28:01;19.40;99.00
32201;DHT22;18701;45.588;5.288;2023-03-30T12:31:14;19.50;98.70
32201;DHT22;18701;45.588;5.288;2023-03-30T12:36:34;19.30;99.00
32201;DHT22;18701;45.588;5.288;2023-03-30T12:38:43;19.30;98.80
32201;DHT22;18701;45.588;5.288;2023-03-30T12:41:13;20.20;98.30
32201;DHT22;18701;45.588;5.288;2023-03-30T12:46:28;20.80;97.90
32201;DHT22;18701;45.588;5.288;2023-03-30T13:02:13;20.40;96.30
32201;DHT22;18701;45.588;5.288;2023-03-30T13:04:45;20.00;97.00
32201;DHT22;18701;45.588;5.288;2023-03-30T13:07:21;20.50;97.10
32201;DHT22;18701;45.588;5.288;2023-03-30T13:09:52;20.40;97.00
32201;DHT22;18701;45.588;5.288;2023-03-30T13:18:24;19.50;97.10
32201;DHT22;18701;45.588;5.288;2023-03-30T13:28:33;19.70;97.70
32201;DHT22;18701;45.588;5.288;2023-03-30T13:39:40;20.10;97.70
32201;DHT22;18701;45.588;5.288;2023-03-30T13:42:21;20.00;97.90
32201;DHT22;18701;45.588;5.288;2023-03-30T13:50:25;19.90;98.10
32201;DHT22;18701;45.588;5.288;2023-03-30T13:52:53;19.90;98.30
32201;DHT22;18701;45.588;5.288;2023-03-30T13:55:32;20.50;98.00
32201;DHT22;18701;45.588;5.288;2023-03-30T14:00:55;21.00;97.20
32201;DHT22;18701;45.588;5.288;2023-03-30T14:05:57;21.70;97.10
32201;DHT22;18701;45.588;5.288;2023-03-30T14:08:26;21.30;97.30
32201;DHT22;18701;45.588;5.288;2023-03-30T14:10:52;21.40;97.00
32201;DHT22;18701;45.588;5.288;2023-03-30T14:13:19;21.90;96.00
32201;DHT22;18701;45.588;5.288;2023-03-30T14:15:48;22.30;96.00
32201;DHT22;18701;45.588;5.288;2023-03-30T14:18:21;22.40;95.80
32201;DHT22;18701;45.588;5.288;2023-03-30T14:20:52;22.50;95.50
32201;DHT22;18701;45.588;5.288;2023-03-30T14:23:37;22.60;95.30
32201;DHT22;18701;45.588;5.288;2023-03-30T14:26:16;22.30;95.20
32201;DHT22;18701;45.588;5.288;2023-03-30T14:28:42;21.90;95.60
32201;DHT22;18701;45.588;5.288;2023-03-30T14:31:16;21.90;95.40
32201;DHT22;18701;45.588;5.288;2023-03-30T14:33:43;22.90;94.80
32201;DHT22;18701;45.588;5.288;2023-03-30T14:36:11;22.50;95.40
32201;DHT22;18701;45.588;5.288;2023-03-30T14:38:44;22.90;94.60
32201;DHT22;18701;45.588;5.288;2023-03-30T14:41:25;22.60;94.80
32201;DHT22;18701;45.588;5.288;2023-03-30T14:43:55;21.90;95.20
32201;DHT22;18701;45.588;5.288;2023-03-30T14:46:23;21.90;95.40
32201;DHT22;18701;45.588;5.288;2023-03-30T14:48:50;21.80;96.00
32201;DHT22;18701;45.588;5.288;2023-03-30T14:53:50;21.40;95.80
32201;DHT22;18701;45.588;5.288;2023-03-30T14:56:17;21.20;96.20
32201;DHT22;18701;45.588;5.288;2023-03-30T14:58:43;21.30;96.20
32201;DHT22;18701;45.588;5.288;2023-03-30T15:01:15;21.40;96.50
32201;DHT22;18701;45.588;5.288;2023-03-30T15:03:42;21.70;96.50
32201;DHT22;18701;45.588;5.288;2023-03-30T15:06:19;21.40;96.70
32201;DHT22;18701;45.588;5.288;2023-03-30T15:08:46;22.30;96.50
32201;DHT22;18701;45.588;5.288;2023-03-30T15:11:18;21.50;97.20
32201;DHT22;18701;45.588;5.288;2023-03-30T15:13:52;22.20;96.80
32201;DHT22;18701;45.588;5.288;2023-03-30T15:16:26;22.50;96.20
32201;DHT22;18701;45.588;5.288;2023-03-30T15:19:02;23.00;95.60
32201;DHT22;18701;45.588;5.288;2023-03-30T15:21:31;23.10;95.50
32201;DHT22;18701;45.588;5.288;2023-03-30T15:23:57;23.50;95.00
32201;DHT22;18701;45.588;5.288;2023-03-30T15:26:24;23.00;95.30
32201;DHT22;18701;45.588;5.288;2023-03-30T15:28:54;22.90;95.60
32201;DHT22;18701;45.588;5.288;2023-03-30T15:31:22;22.30;95.70
32201;DHT22;18701;45.588;5.288;2023-03-30T15:33:55;22.20;96.20
32201;DHT22;18701;45.588;5.288;2023-03-30T15:36:36;22.80;96.00
32201;DHT22;18701;45.588;5.288;2023-03-30T15:39:26;22.70;96.10
32201;DHT22;18701;45.588;5.288;2023-03-30T15:42:03;22.50;96.00
32201;DHT22;18701;45.588;5.288;2023-03-30T15:44:37;22.60;95.80
32201;DHT22;18701;45.588;5.288;2023-03-30T15:47:08;22.50;95.80
32201;DHT22;18701;45.588;5.288;2023-03-30T15:49:40;22.30;96.00
32201;DHT22;18701;45.588;5.288;2023-03-30T15:52:33;22.60;96.10
32201;DHT22;18701;45.588;5.288;2023-03-30T15:55:25;22.50;95.70
32201;DHT22;18701;45.588;5.288;2023-03-30T15:57:48;23.00;95.20
32201;DHT22;18701;45.588;5.288;2023-03-30T16:00:21;22.90;95.20
32201;DHT22;18701;45.588;5.288;2023-03-30T16:02:53;23.40;94.70
32201;DHT22;18701;45.588;5.288;2023-03-30T16:05:27;23.50;94.50
32201;DHT22;18701;45.588;5.288;2023-03-30T16:07:53;23.30;94.30
32201;DHT22;18701;45.588;5.288;2023-03-30T16:10:24;21.80;95.30
32201;DHT22;18701;45.588;5.288;2023-03-30T16:12:52;23.50;94.60
32201;DHT22;18701;45.588;5.288;2023-03-30T16:15:23;25.10;92.80
32201;DHT22;18701;45.588;5.288;2023-03-30T16:17:49;25.20;92.90
32201;DHT22;18701;45.588;5.288;2023-03-30T16:20:23;24.20;93.20
32201;DHT22;18701;45.588;5.288;2023-03-30T16:22:50;25.20;92.50
32201;DHT22;18701;45.588;5.288;2023-03-30T16:25:21;26.20;92.00
32201;DHT22;18701;45.588;5.288;2023-03-30T16:27:49;26.80;91.30
32201;DHT22;18701;45.588;5.288;2023-03-30T16:32:50;26.10;90.90
32201;DHT22;18701;45.588;5.288;2023-03-30T16:35:16;26.60;90.00
32201;DHT22;18701;45.588;5.288;2023-03-30T16:37:42;25.70;90.20
32201;DHT22;18701;45.588;5.288;2023-03-30T16:40:12;26.30;89.90
32201;DHT22;18701;45.588;5.288;2023-03-30T16:42:41;26.10;89.70
32201;DHT22;18701;45.588;5.288;2023-03-30T16:45:07;23.50;91.40
32201;DHT22;18701;45.588;5.288;2023-03-30T16:47:33;22.20;93.20
32201;DHT22;18701;45.588;5.288;2023-03-30T16:50:14;23.80;92.70
32201;DHT22;18701;45.588;5.288;2023-03-30T16:52:41;24.60;91.90
32201;DHT22;18701;45.588;5.288;2023-03-30T16:55:06;23.60;92.50
32201;DHT22;18701;45.588;5.288;2023-03-30T16:57:34;22.40;93.80
32201;DHT22;18701;45.588;5.288;2023-03-30T17:00:00;21.70;94.50
32201;DHT22;18701;45.588;5.288;2023-03-30T17:02:26;21.30;95.40
32201;DHT22;18701;45.588;5.288;2023-03-30T17:04:51;21.70;95.50
32201;DHT22;18701;45.588;5.288;2023-03-30T17:07:20;22.80;94.50
32201;DHT22;18701;45.588;5.288;2023-03-30T17:09:45;21.30;95.70
32201;DHT22;18701;45.588;5.288;2023-03-30T17:12:11;20.70;96.30
32201;DHT22;18701;45.588;5.288;2023-03-30T17:14:36;20.70;96.60
32201;DHT22;18701;45.588;5.288;2023-03-30T17:17:03;21.10;96.20
32201;DHT22;18701;45.588;5.288;2023-03-30T17:19:31;21.10;96.00
32201;DHT22;18701;45.588;5.288;2023-03-30T17:21:57;20.40;96.60
32201;DHT22;18701;45.588;5.288;2023-03-30T17:24:22;19.80;97.20
32201;DHT22;18701;45.588;5.288;2023-03-30T17:26:48;20.00;97.10
32201;DHT22;18701;45.588;5.288;2023-03-30T17:29:13;20.10;97.40
32201;DHT22;18701;45.588;5.288;2023-03-30T17:31:39;19.80;97.70
32201;DHT22;18701;45.588;5.288;2023-03-30T17:34:09;19.60;98.20
32201;DHT22;18701;45.588;5.288;2023-03-30T17:36:35;19.50;98.50
32201;DHT22;18701;45.588;5.288;2023-03-30T17:39:00;19.40;98.70
32201;DHT22;18701;45.588;5.288;2023-03-30T17:41:29;19.40;98.80
32201;DHT22;18701;45.588;5.288;2023-03-30T17:43:58;19.30;99.30
32201;DHT22;18701;45.588;5.288;2023-03-30T17:46:23;19.30;99.40
32201;DHT22;18701;45.588;5.288;2023-03-30T17:48:49;19.00;99.70
32201;DHT22;18701;45.588;5.288;2023-03-30T17:51:20;18.80;99.90
32201;DHT22;18701;45.588;5.288;2023-03-30T17:53:46;18.90;99.90
32201;DHT22;18701;45.588;5.288;2023-03-30T17:56:12;18.80;99.90
32201;DHT22;18701;45.588;5.288;2023-03-30T17:58:38;18.70;99.90
32201;DHT22;18701;45.588;5.288;2023-03-30T18:01:05;18.80;99.90
32201;DHT22;18701;45.588;5.288;2023-03-30T18:03:33;18.70;99.90
32201;DHT22;18701;45.588;5.288;2023-03-30T18:06:00;18.50;99.90
32201;DHT22;18701;45.588;5.288;2023-03-30T18:08:27;18.50;99.90
32201;DHT22;18701;45.588;5.288;2023-03-30T18:10:55;18.50;99.90
32201;DHT22;18701;45.588;5.288;2023-03-30T18:13:21;18.50;99.90
32201;DHT22;18701;45.588;5.288;2023-03-30T18:15:49;18.40;99.90
32201;DHT22;18701;45.588;5.288;2023-03-30T18:18:20;18.20;99.90
32201;DHT22;18701;45.588;5.288;2023-03-30T18:20:52;18.10;99.90
32201;DHT22;18701;45.588;5.288;2023-03-30T18:23:19;18.20;99.90